createdAt,value
2023-01-27T00:00:43.898Z,102551.95
2023-01-27T00:03:14.451Z,102554.17
2023-01-27T00:05:44.338Z,102554.95
2023-01-27T00:08:14.252Z,102550.70
2023-01-27T00:10:44.284Z,102558.96
2023-01-27T00:13:27.602Z,102559.45
2023-01-27T00:15:57.608Z,102563.06
2023-01-27T00:18:27.241Z,102557.73
2023-01-27T00:21:14.384Z,102557.73
2023-01-27T00:24:02.012Z,102560.80
2023-01-27T00:26:31.974Z,102569.91
2023-01-27T00:29:01.730Z,102564.47
2023-01-27T00:31:49.257Z,102558.79
2023-01-27T00:34:19.005Z,102558.79
2023-01-27T00:36:48.723Z,102563.92
2023-01-27T00:39:18.905Z,102564.23
2023-01-27T00:41:48.408Z,102571.33
2023-01-27T00:44:18.375Z,102568.66
2023-01-27T00:46:48.175Z,102561.89
2023-01-27T00:49:18.262Z,102566.91
2023-01-27T00:51:48.100Z,102571.50
2023-01-27T00:54:17.829Z,102571.50
2023-01-27T00:56:48.552Z,102573.21
2023-01-27T00:59:18.615Z,102566.22
2023-01-27T01:01:48.474Z,102568.72
2023-01-27T01:04:18.193Z,102575.09
2023-01-27T01:06:48.520Z,102570.88
2023-01-27T01:09:18.271Z,102574.72
2023-01-27T01:11:48.106Z,102573.97
2023-01-27T01:14:17.881Z,102582.05
2023-01-27T01:16:47.651Z,102579.61
2023-01-27T01:19:17.826Z,102588.45
2023-01-27T01:21:47.696Z,102589.17
2023-01-27T01:24:17.318Z,102586.70
2023-01-27T01:26:47.950Z,102582.31
2023-01-27T01:29:17.761Z,102582.31
2023-01-27T01:31:47.604Z,102587.98
2023-01-27T01:34:17.090Z,102590.69
2023-01-27T01:36:46.847Z,102591.45
2023-01-27T01:39:16.620Z,102599.42
2023-01-27T01:41:46.913Z,102598.70
2023-01-27T01:44:24.904Z,102603.59
2023-01-27T01:46:54.699Z,102603.19
2023-01-27T01:49:30.982Z,102598.80
2023-01-27T01:52:03.466Z,102600.89
2023-01-27T01:54:46.674Z,102596.86
2023-01-27T01:57:23.278Z,102596.86
2023-01-27T01:59:59.212Z,102594.66
2023-01-27T02:02:29.097Z,102597.48
2023-01-27T02:05:02.031Z,102601.02
2023-01-27T02:07:49.744Z,102601.17
2023-01-27T02:10:19.359Z,102598.21
2023-01-27T02:12:49.266Z,102603.84
2023-01-27T02:15:21.347Z,102601.42
2023-01-27T02:17:51.682Z,102602.75
2023-01-27T02:20:47.635Z,102613.09
2023-01-27T02:23:35.571Z,102609.03
2023-01-27T02:26:24.849Z,102606.09
2023-01-27T02:29:00.356Z,102615.30
2023-01-27T02:31:30.136Z,102620.06
2023-01-27T02:34:02.975Z,102616.64
2023-01-27T02:36:36.066Z,102614.42
2023-01-27T02:39:08.615Z,102618.48
2023-01-27T02:41:44.464Z,102618.60
2023-01-27T02:44:15.319Z,102618.60
2023-01-27T02:46:46.114Z,102616.89
2023-01-27T02:49:16.392Z,102616.89
2023-01-27T02:51:46.788Z,102616.27
2023-01-27T02:54:16.470Z,102608.39
2023-01-27T02:56:46.507Z,102610.50
2023-01-27T02:59:17.230Z,102611.72
2023-01-27T03:01:49.249Z,102604.37
2023-01-27T03:04:19.175Z,102609.63
2023-01-27T03:06:48.902Z,102619.34
2023-01-27T03:09:18.526Z,102620.55
2023-01-27T03:12:05.878Z,102621.30
2023-01-27T03:14:54.605Z,102631.00
2023-01-27T03:17:42.255Z,102625.23
2023-01-27T03:20:14.414Z,102625.49
2023-01-27T03:22:44.690Z,102631.00
2023-01-27T03:25:15.160Z,102619.09
2023-01-27T03:27:45.691Z,102624.27
2023-01-27T03:30:22.905Z,102637.16
2023-01-27T03:32:58.535Z,102637.16
2023-01-27T03:35:35.077Z,102636.91
2023-01-27T03:38:31.509Z,102647.73
2023-01-27T03:41:20.598Z,102648.32
2023-01-27T03:44:08.104Z,102648.32
2023-01-27T03:46:37.565Z,102652.03
2023-01-27T03:49:07.343Z,102646.38
2023-01-27T03:51:37.235Z,102655.34
2023-01-27T03:54:09.716Z,102656.44
2023-01-27T03:56:39.733Z,102663.05
2023-01-27T03:59:09.504Z,102661.73
2023-01-27T04:01:39.362Z,102654.70
2023-01-27T04:04:29.943Z,102655.34
2023-01-27T04:07:01.512Z,102658.77
2023-01-27T04:09:34.340Z,102664.31
2023-01-27T04:12:08.268Z,102660.64
2023-01-27T04:14:41.796Z,102662.46
2023-01-27T04:17:17.137Z,102658.98
2023-01-27T04:19:46.934Z,102659.62
2023-01-27T04:22:17.738Z,102662.21
2023-01-27T04:24:47.586Z,102662.85
2023-01-27T04:27:19.291Z,102661.12
2023-01-27T04:29:49.207Z,102656.44
2023-01-27T04:32:19.073Z,102657.94
2023-01-27T04:34:48.829Z,102661.72
2023-01-27T04:37:18.604Z,102667.89
2023-01-27T04:39:48.689Z,102667.75
2023-01-27T04:42:18.360Z,102671.81
2023-01-27T04:44:48.167Z,102667.02
2023-01-27T04:47:17.966Z,102675.63
2023-01-27T04:49:47.721Z,102680.80
2023-01-27T04:52:17.280Z,102682.96
2023-01-27T04:54:47.020Z,102669.77
2023-01-27T04:57:16.797Z,102677.42
2023-01-27T04:59:46.545Z,102680.53
2023-01-27T05:02:16.396Z,102671.69
2023-01-27T05:04:46.203Z,102679.07
2023-01-27T05:07:16.030Z,102684.44
2023-01-27T05:09:45.851Z,102677.59
2023-01-27T05:12:16.110Z,102685.66
2023-01-27T05:14:45.884Z,102678.56
2023-01-27T05:17:15.833Z,102682.88
2023-01-27T05:19:45.584Z,102684.22
2023-01-27T05:22:15.247Z,102688.39
2023-01-27T05:24:45.019Z,102685.07
2023-01-27T05:27:14.961Z,102691.61
2023-01-27T05:29:44.992Z,102683.63
2023-01-27T05:32:15.052Z,102682.62
2023-01-27T05:34:44.831Z,102691.11
2023-01-27T05:37:14.887Z,102692.94
2023-01-27T05:39:44.789Z,102690.84
2023-01-27T05:42:14.606Z,102681.24
2023-01-27T05:44:44.664Z,102688.16
2023-01-27T05:47:14.442Z,102692.56
2023-01-27T05:49:44.232Z,102700.45
2023-01-27T05:52:14.012Z,102700.21
2023-01-27T05:54:43.792Z,102700.07
2023-01-27T05:57:13.570Z,102706.84
2023-01-27T05:59:43.713Z,102704.75
2023-01-27T06:02:14.923Z,102713.09
2023-01-27T06:04:44.781Z,102708.21
2023-01-27T06:07:14.517Z,102709.19
2023-01-27T06:09:44.315Z,102706.72
2023-01-27T06:12:14.063Z,102711.37
2023-01-27T06:14:43.846Z,102709.91
2023-01-27T06:17:13.585Z,102715.06
2023-01-27T06:19:43.641Z,102721.58
2023-01-27T06:22:13.387Z,102720.12
2023-01-27T06:24:43.149Z,102728.46
2023-01-27T06:27:12.947Z,102724.17
2023-01-27T06:29:42.667Z,102725.16
2023-01-27T06:32:12.273Z,102720.48
2023-01-27T06:34:42.042Z,102722.93
2023-01-27T06:37:12.136Z,102730.58
2023-01-27T06:39:41.879Z,102724.67
2023-01-27T06:42:12.128Z,102725.41
2023-01-27T06:44:41.905Z,102729.09
2023-01-27T06:47:11.642Z,102733.77
2023-01-27T06:49:41.681Z,102740.27
2023-01-27T06:52:11.752Z,102737.58
2023-01-27T06:54:41.516Z,102740.17
2023-01-27T06:57:11.720Z,102747.43
2023-01-27T06:59:41.541Z,102744.10
2023-01-27T07:02:13.744Z,102741.16
2023-01-27T07:04:43.563Z,102746.07
2023-01-27T07:07:13.309Z,102744.10
2023-01-27T07:09:52.443Z,102742.75
2023-01-27T07:12:14.225Z,102741.14
2023-01-27T07:14:44.055Z,102743.47
2023-01-27T07:17:13.844Z,102742.14
2023-01-27T07:19:43.682Z,102751.70
2023-01-27T07:22:13.233Z,102748.37
2023-01-27T07:24:43.071Z,102755.39
2023-01-27T07:27:12.913Z,102756.52
2023-01-27T07:29:42.756Z,102757.38
2023-01-27T07:32:12.791Z,102765.84
2023-01-27T07:34:42.591Z,102767.45
2023-01-27T07:37:12.809Z,102777.30
2023-01-27T07:39:42.957Z,102776.80
2023-01-27T07:42:14.452Z,102773.34
2023-01-27T07:44:44.304Z,102780.47
2023-01-27T07:47:14.153Z,102780.08
2023-01-27T07:49:43.947Z,102781.30
2023-01-27T07:52:13.450Z,102786.96
2023-01-27T07:54:43.873Z,102781.30
2023-01-27T07:57:13.820Z,102784.86
2023-01-27T07:59:43.664Z,102787.44
2023-01-27T08:02:13.212Z,102788.83
2023-01-27T08:04:52.657Z,102786.27
2023-01-27T08:07:14.638Z,102789.94
2023-01-27T08:09:44.447Z,102790.47
2023-01-27T08:12:14.283Z,102791.98
2023-01-27T08:14:44.147Z,102795.80
2023-01-27T08:17:13.887Z,102794.56
2023-01-27T08:19:43.766Z,102803.72
2023-01-27T08:22:15.084Z,102804.86
2023-01-27T08:24:44.899Z,102795.48
2023-01-27T08:27:15.285Z,102799.28
2023-01-27T08:29:45.246Z,102809.73
2023-01-27T08:32:15.336Z,102802.87
2023-01-27T08:34:45.079Z,102805.27
2023-01-27T08:37:15.082Z,102809.19
2023-01-27T08:39:44.875Z,102823.11
2023-01-27T08:42:14.777Z,102831.61
2023-01-27T08:44:44.925Z,102831.03
2023-01-27T08:47:15.155Z,102838.83
2023-01-27T08:49:45.988Z,102838.48
2023-01-27T08:52:15.778Z,102838.48
2023-01-27T08:54:45.800Z,102839.59
2023-01-27T08:57:15.562Z,102826.85
2023-01-27T08:59:46.367Z,102826.85
2023-01-27T09:02:15.863Z,102830.37
2023-01-27T09:04:45.989Z,102839.27
2023-01-27T09:07:16.073Z,102835.30
2023-01-27T09:09:50.313Z,102844.39
2023-01-27T09:12:20.913Z,102851.39
2023-01-27T09:14:50.684Z,102852.37
2023-01-27T09:17:20.444Z,102847.01
2023-01-27T09:19:50.236Z,102852.59
2023-01-27T09:22:19.975Z,102852.59
2023-01-27T09:24:50.229Z,102859.91
2023-01-27T09:27:33.316Z,102861.17
2023-01-27T09:29:51.828Z,102862.88
2023-01-27T09:32:21.266Z,102868.01
2023-01-27T09:34:51.121Z,102871.95
2023-01-27T09:37:21.130Z,102871.95
2023-01-27T09:39:54.264Z,102881.11
2023-01-27T09:42:33.169Z,102876.06
2023-01-27T09:45:23.923Z,102881.80
2023-01-27T09:48:14.734Z,102883.00
2023-01-27T09:50:47.572Z,102886.48
2023-01-27T09:53:38.325Z,102893.91
2023-01-27T09:59:08.205Z,102880.98
2023-01-27T10:01:59.090Z,102880.70
2023-01-27T10:04:37.609Z,102883.08
2023-01-27T10:07:21.927Z,102886.35
2023-01-27T10:10:03.302Z,102876.86
2023-01-27T10:12:56.797Z,102869.89
2023-01-27T10:15:32.658Z,102875.54
2023-01-27T10:18:08.252Z,102875.54
2023-01-27T10:21:00.393Z,102879.44
2023-01-27T10:23:44.640Z,102876.66
2023-01-27T10:26:44.537Z,102878.42
2023-01-27T10:29:28.909Z,102873.91
2023-01-27T10:32:01.839Z,102872.96
2023-01-27T10:34:40.468Z,102870.94
2023-01-27T10:37:22.197Z,102867.55
2023-01-27T10:40:00.626Z,102871.33
2023-01-27T10:42:48.243Z,102862.77
2023-01-27T10:45:32.731Z,102867.36
2023-01-27T10:48:08.538Z,102863.74
2023-01-27T10:50:52.669Z,102862.25
2023-01-27T10:53:28.643Z,102867.19
2023-01-27T10:56:09.927Z,102874.03
2023-01-27T10:58:55.324Z,102867.41
2023-01-27T11:01:33.631Z,102859.67
2023-01-27T11:04:08.830Z,102867.95
2023-01-27T11:06:42.033Z,102864.36
2023-01-27T11:09:38.339Z,102861.78
2023-01-27T11:12:12.470Z,102868.56
2023-01-27T11:14:53.035Z,102873.83
2023-01-27T11:17:38.041Z,102873.83
2023-01-27T11:20:22.153Z,102870.95
2023-01-27T11:23:01.161Z,102875.75
2023-01-27T11:25:55.186Z,102865.69
2023-01-27T11:28:45.376Z,102858.60
2023-01-27T11:31:23.766Z,102853.52
2023-01-27T11:34:14.610Z,102858.69
2023-01-27T11:36:44.338Z,102848.85
2023-01-27T11:39:15.715Z,102850.44
2023-01-27T11:41:48.784Z,102848.61
2023-01-27T11:44:24.100Z,102849.84
2023-01-27T11:46:54.516Z,102837.83
2023-01-27T11:49:39.242Z,102847.89
2023-01-27T11:52:22.296Z,102840.30
2023-01-27T11:55:06.972Z,102837.94
2023-01-27T11:57:39.407Z,102835.98
2023-01-27T12:00:24.117Z,102829.19
2023-01-27T12:03:08.950Z,102829.19
2023-01-27T12:05:42.044Z,102826.13
2023-01-27T12:08:11.707Z,102832.05
2023-01-27T12:10:45.093Z,102832.52
2023-01-27T12:13:20.386Z,102828.71
2023-01-27T12:16:01.625Z,102826.51
2023-01-27T12:18:34.008Z,102831.19
2023-01-27T12:21:07.175Z,102830.06
2023-01-27T12:23:43.027Z,102827.61
2023-01-27T12:26:13.164Z,102835.98
2023-01-27T12:28:54.668Z,102819.25
2023-01-27T12:31:30.516Z,102821.93
2023-01-27T12:34:03.491Z,102814.92
2023-01-27T12:36:41.673Z,102814.05
2023-01-27T12:39:23.411Z,102819.70
2023-01-27T12:41:53.837Z,102810.36
2023-01-27T12:44:24.100Z,102804.31
2023-01-27T12:47:02.173Z,102802.13
2023-01-27T12:49:38.659Z,102806.94
2023-01-27T12:52:10.109Z,102806.94
2023-01-27T12:54:39.873Z,102805.70
2023-01-27T12:57:15.434Z,102799.13
2023-01-27T12:59:50.914Z,102799.16
2023-01-27T13:02:24.463Z,102801.64
2023-01-27T13:04:57.256Z,102793.18
2023-01-27T13:07:30.101Z,102804.43
2023-01-27T13:10:12.397Z,102799.93
2023-01-27T13:12:37.183Z,102798.62
2023-01-27T13:15:22.557Z,102789.63
2023-01-27T13:17:54.842Z,102790.45
2023-01-27T13:20:27.660Z,102784.46
2023-01-27T13:23:24.326Z,102781.53
2023-01-27T13:26:12.025Z,102788.24
2023-01-27T13:29:06.830Z,102796.37
2023-01-27T13:31:43.531Z,102790.86
2023-01-27T13:34:38.647Z,102787.59
2023-01-27T13:37:17.000Z,102800.81
2023-01-27T13:40:18.049Z,102798.25
2023-01-27T13:45:47.545Z,102795.09
2023-01-27T13:48:25.860Z,102793.66
2023-01-27T13:51:08.057Z,102792.80
2023-01-27T13:53:39.107Z,102794.02
2023-01-27T13:56:25.897Z,102796.45
2023-01-27T13:59:19.939Z,102798.17
2023-01-27T14:02:24.119Z,102805.90
2023-01-27T14:04:57.292Z,102804.94
2023-01-27T14:07:41.961Z,102801.60
2023-01-27T14:10:25.103Z,102804.31
2023-01-27T14:12:57.912Z,102808.77
2023-01-27T14:15:30.697Z,102808.87
2023-01-27T14:18:18.709Z,102808.77
2023-01-27T14:21:08.941Z,102808.77
2023-01-27T14:23:44.778Z,102810.85
2023-01-27T14:26:30.867Z,102811.94
2023-01-27T14:29:12.693Z,102817.98
2023-01-27T14:32:01.857Z,102819.94
2023-01-27T14:34:43.227Z,102825.63
2023-01-27T14:37:16.018Z,102824.91
2023-01-27T14:39:51.596Z,102826.24
2023-01-27T14:42:27.071Z,102827.86
2023-01-27T14:45:05.258Z,102828.97
2023-01-27T14:47:49.659Z,102837.31
2023-01-27T14:50:39.995Z,102840.16
2023-01-27T14:53:41.021Z,102841.00
2023-01-27T14:56:28.797Z,102844.21
2023-01-27T14:59:07.427Z,102844.21
2023-01-27T15:01:51.832Z,102848.98
2023-01-27T15:04:30.257Z,102851.47
2023-01-27T15:07:08.651Z,102846.91
2023-01-27T15:10:05.996Z,102846.91
2023-01-27T15:12:51.040Z,102853.44
2023-01-27T15:15:32.761Z,102853.44
2023-01-27T15:18:23.517Z,102855.16
2023-01-27T15:21:29.369Z,102855.27
2023-01-27T15:24:13.907Z,102858.70
2023-01-27T15:26:44.870Z,102860.19
2023-01-27T15:29:16.595Z,102863.65
2023-01-27T15:31:49.538Z,102864.87
2023-01-27T15:34:24.052Z,102866.20
2023-01-27T15:37:18.811Z,102860.06
2023-01-27T15:40:05.145Z,102859.46
2023-01-27T15:42:54.245Z,102867.20
2023-01-27T15:45:34.807Z,102871.98
2023-01-27T15:48:13.257Z,102877.02
2023-01-27T15:51:03.876Z,102878.48
2023-01-27T15:53:52.789Z,102872.45
2023-01-27T15:56:24.142Z,102874.28
2023-01-27T15:58:57.116Z,102883.89
2023-01-27T16:01:36.074Z,102869.66
2023-01-27T16:04:12.469Z,102876.06
2023-01-27T16:06:52.034Z,102879.52
2023-01-27T16:09:27.097Z,102886.73
2023-01-27T16:12:02.536Z,102877.66
2023-01-27T16:14:43.973Z,102883.27
2023-01-27T16:17:22.818Z,102883.27
2023-01-27T16:20:08.318Z,102881.08
2023-01-27T16:22:41.276Z,102879.12
2023-01-27T16:25:31.873Z,102877.78
2023-01-27T16:28:17.108Z,102881.86
2023-01-27T16:31:05.445Z,102877.20
2023-01-27T16:33:40.979Z,102881.33
2023-01-27T16:36:31.302Z,102884.03
2023-01-27T16:39:24.987Z,102889.52
2023-01-27T16:41:57.777Z,102893.52
2023-01-27T16:44:30.608Z,102898.34
2023-01-27T16:47:16.390Z,102900.31
2023-01-27T16:49:40.413Z,102905.20
2023-01-27T16:52:24.617Z,102907.20
2023-01-27T16:54:55.033Z,102907.20
2023-01-27T16:57:36.593Z,102907.30
2023-01-27T17:00:11.997Z,102902.02
2023-01-27T17:02:43.382Z,102912.69
2023-01-27T17:05:19.070Z,102912.69
2023-01-27T17:08:25.937Z,102919.34
2023-01-27T17:11:08.404Z,102919.75
2023-01-27T17:13:48.652Z,102926.61
2023-01-27T17:16:36.417Z,102926.98
2023-01-27T17:19:09.997Z,102927.50
2023-01-27T17:21:42.799Z,102927.07
2023-01-27T17:24:21.256Z,102933.59
2023-01-27T17:27:02.887Z,102904.12
2023-01-27T17:29:41.197Z,102933.34
2023-01-27T17:32:38.217Z,102936.54
2023-01-27T17:35:12.139Z,102939.98
2023-01-27T17:37:43.553Z,102945.27
2023-01-27T17:40:18.537Z,102951.17
2023-01-27T17:42:48.857Z,102952.06
2023-01-27T17:45:24.768Z,102956.00
2023-01-27T17:47:56.501Z,102953.41
2023-01-27T17:50:32.216Z,102958.58
2023-01-27T17:53:03.948Z,102947.75
2023-01-27T17:55:33.863Z,102951.52
2023-01-27T17:58:10.509Z,102957.59
2023-01-27T18:00:42.050Z,102956.00
2023-01-27T18:03:26.629Z,102952.00
2023-01-27T18:05:56.543Z,102959.53
2023-01-27T18:08:26.009Z,102964.80
2023-01-27T18:10:58.807Z,102967.74
2023-01-27T18:13:31.902Z,102963.86
2023-01-27T18:16:23.652Z,102964.75
2023-01-27T18:18:53.798Z,102969.22
2023-01-27T18:21:25.821Z,102964.59
2023-01-27T18:23:58.827Z,102965.95
2023-01-27T18:26:39.784Z,102975.98
2023-01-27T18:29:24.864Z,102975.73
2023-01-27T18:31:58.153Z,102974.66
2023-01-27T18:34:30.403Z,102973.24
2023-01-27T18:37:07.439Z,102983.11
2023-01-27T18:39:40.118Z,102974.38
2023-01-27T18:42:18.019Z,102977.88
2023-01-27T18:44:52.921Z,102983.40
2023-01-27T18:47:31.849Z,102987.91
2023-01-27T18:50:04.870Z,102996.18
2023-01-27T18:52:34.806Z,102994.66
2023-01-27T18:55:18.131Z,102993.19
2023-01-27T18:57:50.070Z,103004.91
2023-01-27T19:00:22.809Z,102995.03
2023-01-27T19:02:56.486Z,103004.20
2023-01-27T19:05:28.992Z,102998.23
2023-01-27T19:07:59.204Z,103007.77
2023-01-27T19:10:31.756Z,103014.06
2023-01-27T19:13:03.801Z,103017.04
2023-01-27T19:15:36.770Z,103018.80
2023-01-27T19:18:32.086Z,103019.05
2023-01-27T19:21:02.861Z,103023.31
2023-01-27T19:23:32.737Z,103022.94
2023-01-27T19:26:04.887Z,103019.80
2023-01-27T19:28:39.303Z,103019.86
2023-01-27T19:31:09.390Z,103020.70
2023-01-27T19:33:40.979Z,103024.21
2023-01-27T19:36:25.642Z,103024.09
2023-01-27T19:39:04.116Z,103017.77
2023-01-27T19:41:34.971Z,103021.62
2023-01-27T19:44:06.602Z,103018.01
2023-01-27T19:46:37.065Z,103021.26
2023-01-27T19:49:08.427Z,103025.86
2023-01-27T19:51:38.039Z,103028.44
2023-01-27T19:54:12.711Z,103030.36
2023-01-27T19:56:42.814Z,103037.43
2023-01-27T19:59:13.882Z,103035.91
2023-01-27T20:01:43.991Z,103031.73
2023-01-27T20:04:13.728Z,103031.72
2023-01-27T20:06:43.508Z,103029.99
2023-01-27T20:09:13.266Z,103031.79
2023-01-27T20:11:45.091Z,103041.50
2023-01-27T20:14:18.958Z,103045.67
2023-01-27T20:16:49.180Z,103045.72
2023-01-27T20:19:19.075Z,103040.14
2023-01-27T20:21:50.058Z,103038.66
2023-01-27T20:24:20.601Z,103031.52
2023-01-27T20:26:50.862Z,103035.95
2023-01-27T20:29:20.632Z,103036.56
2023-01-27T20:31:50.487Z,103032.45
2023-01-27T20:34:21.857Z,103041.48
2023-01-27T20:36:52.092Z,103031.30
2023-01-27T20:39:21.974Z,103033.19
2023-01-27T20:41:52.135Z,103038.30
2023-01-27T20:44:21.886Z,103041.87
2023-01-27T20:46:51.956Z,103033.56
2023-01-27T20:49:22.104Z,103033.56
2023-01-27T20:51:51.861Z,103033.70
2023-01-27T20:54:21.686Z,103028.27
2023-01-27T20:56:51.489Z,103027.50
2023-01-27T20:59:21.247Z,103026.94
2023-01-27T21:01:50.992Z,103033.52
2023-01-27T21:04:20.763Z,103030.76
2023-01-27T21:06:50.611Z,103029.76
2023-01-27T21:09:20.355Z,103035.48
2023-01-27T21:11:50.101Z,103031.30
2023-01-27T21:14:19.958Z,103041.50
2023-01-27T21:16:49.767Z,103044.20
2023-01-27T21:19:22.378Z,103044.20
2023-01-27T21:21:52.231Z,103047.07
2023-01-27T21:24:23.260Z,103047.25
2023-01-27T21:26:54.231Z,103046.94
2023-01-27T21:29:24.345Z,103046.45
2023-01-27T21:31:54.173Z,103040.32
2023-01-27T21:34:24.069Z,103040.89
2023-01-27T21:36:55.699Z,103035.34
2023-01-27T21:39:25.869Z,103033.19
2023-01-27T21:41:57.581Z,103025.45
2023-01-27T21:44:48.799Z,103031.84
2023-01-27T21:47:20.572Z,103027.92
2023-01-27T21:50:03.832Z,103026.93
2023-01-27T21:52:39.672Z,103028.84
2023-01-27T21:55:12.633Z,103019.76
2023-01-27T21:57:45.153Z,103024.53
2023-01-27T22:00:22.519Z,103022.39
2023-01-27T22:03:00.578Z,103015.00
2023-01-27T22:05:32.042Z,103025.14
2023-01-27T22:08:02.064Z,103021.52
2023-01-27T22:10:32.035Z,103015.38
2023-01-27T22:13:04.537Z,103013.75
2023-01-27T22:15:34.723Z,103011.73
2023-01-27T22:18:06.233Z,103010.91
2023-01-27T22:20:36.026Z,103010.66
2023-01-27T22:23:05.770Z,103009.67
2023-01-27T22:25:35.527Z,103009.30
2023-01-27T22:28:05.346Z,103009.06
2023-01-27T22:30:35.176Z,103008.92
2023-01-27T22:33:05.035Z,103001.89
2023-01-27T22:35:34.797Z,103005.69
2023-01-27T22:38:04.560Z,103007.39
2023-01-27T22:40:34.398Z,103003.16
2023-01-27T22:43:06.078Z,103007.16
2023-01-27T22:45:37.398Z,103009.12
2023-01-27T22:48:08.626Z,103002.69
2023-01-27T22:50:40.525Z,103004.03
2023-01-27T22:53:10.975Z,103001.73
2023-01-27T22:55:41.010Z,103003.77
2023-01-27T22:58:12.682Z,103004.16
2023-01-27T23:00:43.275Z,102993.22
2023-01-27T23:03:13.047Z,103006.97
2023-01-27T23:05:43.011Z,102999.54
2023-01-27T23:08:15.704Z,103004.77
2023-01-27T23:10:45.480Z,102999.91
2023-01-27T23:13:15.712Z,103002.56
2023-01-27T23:15:46.277Z,103005.92
2023-01-27T23:18:16.025Z,103007.46
2023-01-27T23:20:46.104Z,103003.53
2023-01-27T23:23:16.413Z,102996.39
2023-01-27T23:25:48.195Z,103010.28
2023-01-27T23:28:21.194Z,103001.79
2023-01-27T23:30:51.623Z,102999.23
2023-01-27T23:33:21.532Z,102996.23
2023-01-27T23:35:58.564Z,103000.06
2023-01-27T23:38:33.187Z,103002.02
2023-01-27T23:41:04.107Z,103005.03
2023-01-27T23:43:34.059Z,103005.27
2023-01-27T23:46:04.068Z,103010.34
2023-01-27T23:48:33.913Z,103009.78
2023-01-27T23:51:11.438Z,103009.95
2023-01-27T23:53:41.167Z,103009.95
2023-01-27T23:56:18.891Z,103006.70
2023-01-27T23:58:49.272Z,103003.52
